createdAt,value
2022-09-03T00:00:21.421Z,51.56
2022-09-03T00:01:21.520Z,54.14
2022-09-03T00:02:21.448Z,49.95
2022-09-03T00:03:21.402Z,49.79
2022-09-03T00:04:25.801Z,50.92
2022-09-03T00:05:21.392Z,50.92
2022-09-03T00:06:21.381Z,53.33
2022-09-03T00:07:21.374Z,51.24
2022-09-03T00:08:21.509Z,48.50
2022-09-03T00:09:21.372Z,50.27
2022-09-03T00:10:21.394Z,49.63
2022-09-03T00:11:21.353Z,50.43
2022-09-03T00:12:21.381Z,54.62
2022-09-03T00:13:21.341Z,53.50
2022-09-03T00:14:21.341Z,52.37
2022-09-03T00:15:21.357Z,52.21
2022-09-03T00:16:21.371Z,49.95
2022-09-03T00:17:21.331Z,54.30
2022-09-03T00:18:21.313Z,49.79
2022-09-03T00:19:21.301Z,50.11
2022-09-03T00:20:21.305Z,50.92
2022-09-03T00:21:21.301Z,50.92
2022-09-03T00:22:21.289Z,51.40
2022-09-03T00:23:21.275Z,50.43
2022-09-03T00:24:21.280Z,49.63
2022-09-03T00:25:21.262Z,50.92
2022-09-03T00:26:21.264Z,50.92
2022-09-03T00:27:21.253Z,51.72
2022-09-03T00:28:21.353Z,50.11
2022-09-03T00:29:21.254Z,49.63
2022-09-03T00:30:21.237Z,50.76
2022-09-03T00:31:21.320Z,50.76
2022-09-03T00:32:21.229Z,49.79
2022-09-03T00:33:21.216Z,50.11
2022-09-03T00:34:21.221Z,50.27
2022-09-03T00:35:21.200Z,50.43
2022-09-03T00:36:21.214Z,51.56
2022-09-03T00:37:21.201Z,51.24
2022-09-03T00:38:21.255Z,54.62
2022-09-03T00:39:21.278Z,53.82
2022-09-03T00:40:21.212Z,53.66
2022-09-03T00:41:21.185Z,53.82
2022-09-03T00:42:22.018Z,53.66
2022-09-03T00:43:21.186Z,54.14
2022-09-03T00:44:21.140Z,53.66
2022-09-03T00:45:21.137Z,54.14
2022-09-03T00:46:21.211Z,52.85
2022-09-03T00:47:21.129Z,54.46
2022-09-03T00:48:27.981Z,53.50
2022-09-03T00:49:22.104Z,53.50
2022-09-03T00:50:21.096Z,53.17
2022-09-03T00:51:21.128Z,54.62
2022-09-03T00:52:23.232Z,52.21
2022-09-03T00:53:21.109Z,53.50
2022-09-03T00:54:21.081Z,53.01
2022-09-03T00:55:21.081Z,54.95
2022-09-03T00:56:21.092Z,53.33
2022-09-03T00:57:21.068Z,52.53
2022-09-03T00:58:21.063Z,52.37
2022-09-03T00:59:21.053Z,53.01
2022-09-03T01:00:21.040Z,52.21
2022-09-03T01:01:21.156Z,53.50
2022-09-03T01:02:21.148Z,52.85
2022-09-03T01:03:21.022Z,51.24
2022-09-03T01:04:21.031Z,52.85
2022-09-03T01:05:21.011Z,53.01
2022-09-03T01:06:21.015Z,53.50
2022-09-03T01:07:21.030Z,53.50
2022-09-03T01:08:21.059Z,53.98
2022-09-03T01:09:20.999Z,53.50
2022-09-03T01:10:20.988Z,53.66
2022-09-03T01:11:20.970Z,52.85
2022-09-03T01:12:20.979Z,52.21
2022-09-03T01:13:20.956Z,51.40
2022-09-03T01:14:20.965Z,52.85
2022-09-03T01:15:20.947Z,52.53
2022-09-03T01:16:21.002Z,53.66
2022-09-03T01:17:20.927Z,52.85
2022-09-03T01:18:20.927Z,52.21
2022-09-03T01:19:20.932Z,52.69
2022-09-03T01:20:20.930Z,51.88
2022-09-03T01:21:20.907Z,54.79
2022-09-03T01:22:20.935Z,53.50
2022-09-03T01:23:20.903Z,52.85
2022-09-03T01:24:21.915Z,53.01
2022-09-03T01:25:20.887Z,52.69
2022-09-03T01:26:20.867Z,52.53
2022-09-03T01:27:20.868Z,52.53
2022-09-03T01:28:20.863Z,52.53
2022-09-03T01:29:20.872Z,54.46
2022-09-03T01:30:20.862Z,53.98
2022-09-03T01:31:20.865Z,52.37
2022-09-03T01:32:20.857Z,53.50
2022-09-03T01:33:20.834Z,52.21
2022-09-03T01:34:20.835Z,51.72
2022-09-03T01:35:20.868Z,52.05
2022-09-03T01:36:20.810Z,52.85
2022-09-03T01:37:20.805Z,51.56
2022-09-03T01:38:20.811Z,53.82
2022-09-03T01:39:20.830Z,52.53
2022-09-03T01:40:20.813Z,52.21
2022-09-03T01:41:20.781Z,52.85
2022-09-03T01:42:21.256Z,52.21
2022-09-03T01:43:20.764Z,51.72
2022-09-03T01:44:20.762Z,52.53
2022-09-03T01:45:20.746Z,54.30
2022-09-03T01:46:20.795Z,52.37
2022-09-03T01:47:20.728Z,51.56
2022-09-03T01:48:20.731Z,51.56
2022-09-03T01:49:20.726Z,50.92
2022-09-03T01:50:20.710Z,51.08
2022-09-03T01:51:24.304Z,51.08
2022-09-03T01:52:20.711Z,51.40
2022-09-03T01:53:20.691Z,52.05
2022-09-03T01:54:21.280Z,51.88
2022-09-03T01:55:20.670Z,54.79
2022-09-03T01:56:20.687Z,52.37
2022-09-03T01:57:35.174Z,52.21
2022-09-03T01:58:21.698Z,53.33
2022-09-03T01:59:20.646Z,52.37
2022-09-03T02:00:20.726Z,51.72
2022-09-03T02:01:21.670Z,52.21
2022-09-03T02:02:20.667Z,52.21
2022-09-03T02:03:20.694Z,54.30
2022-09-03T02:04:20.629Z,51.88
2022-09-03T02:05:20.618Z,52.69
2022-09-03T02:06:20.609Z,51.72
2022-09-03T02:07:20.627Z,51.72
2022-09-03T02:08:20.599Z,53.17
2022-09-03T02:09:20.599Z,53.01
2022-09-03T02:10:20.584Z,52.21
2022-09-03T02:11:20.574Z,52.53
2022-09-03T02:12:20.563Z,53.98
2022-09-03T02:13:20.586Z,54.30
2022-09-03T02:14:20.579Z,53.50
2022-09-03T02:15:20.604Z,53.66
2022-09-03T02:16:20.625Z,53.33
2022-09-03T02:17:20.538Z,53.33
2022-09-03T02:18:20.590Z,53.01
2022-09-03T02:19:20.513Z,52.85
2022-09-03T02:20:20.531Z,53.33
2022-09-03T02:21:20.521Z,52.85
2022-09-03T02:22:20.506Z,52.21
2022-09-03T02:23:24.611Z,53.01
2022-09-03T02:24:21.487Z,53.01
2022-09-03T02:25:20.458Z,53.17
2022-09-03T02:26:20.458Z,53.33
2022-09-03T02:27:20.471Z,54.30
2022-09-03T02:28:20.458Z,54.62
2022-09-03T02:29:20.458Z,54.46
2022-09-03T02:30:20.450Z,54.46
2022-09-03T02:31:20.504Z,53.50
2022-09-03T02:32:20.410Z,54.14
2022-09-03T02:33:20.426Z,53.82
2022-09-03T02:34:20.402Z,52.53
2022-09-03T02:35:21.422Z,54.46
2022-09-03T02:36:20.410Z,53.50
2022-09-03T02:37:20.394Z,52.69
2022-09-03T02:38:20.432Z,53.01
2022-09-03T02:39:20.403Z,53.17
2022-09-03T02:40:20.390Z,53.33
2022-09-03T02:41:20.371Z,53.98
2022-09-03T02:42:20.362Z,53.50
2022-09-03T02:43:20.338Z,53.01
2022-09-03T02:44:20.351Z,53.17
2022-09-03T02:45:20.339Z,53.50
2022-09-03T02:46:20.429Z,54.46
2022-09-03T02:47:20.330Z,55.11
2022-09-03T02:48:20.351Z,54.30
2022-09-03T02:49:20.315Z,54.46
2022-09-03T02:50:20.314Z,56.07
2022-09-03T02:51:20.304Z,54.30
2022-09-03T02:52:20.282Z,53.98
2022-09-03T02:53:20.282Z,53.82
2022-09-03T02:54:21.166Z,53.82
2022-09-03T02:55:21.263Z,54.14
2022-09-03T02:56:20.275Z,55.59
2022-09-03T02:57:27.373Z,53.98
2022-09-03T02:58:21.257Z,53.17
2022-09-03T02:59:20.275Z,54.30
2022-09-03T03:00:20.234Z,56.07
2022-09-03T03:01:22.657Z,55.75
2022-09-03T03:02:20.264Z,54.95
2022-09-03T03:03:20.227Z,56.56
2022-09-03T03:04:20.215Z,53.82
2022-09-03T03:05:20.202Z,56.40
2022-09-03T03:06:20.199Z,54.95
2022-09-03T03:07:20.186Z,54.95
2022-09-03T03:08:20.182Z,54.95
2022-09-03T03:09:20.182Z,54.79
2022-09-03T03:10:20.175Z,56.24
2022-09-03T03:11:20.153Z,54.95
2022-09-03T03:12:20.146Z,55.11
2022-09-03T03:13:20.143Z,55.11
2022-09-03T03:14:20.164Z,53.50
2022-09-03T03:15:20.138Z,53.66
2022-09-03T03:16:20.192Z,54.46
2022-09-03T03:17:20.132Z,53.01
2022-09-03T03:18:20.118Z,52.85
2022-09-03T03:19:20.119Z,57.69
2022-09-03T03:20:20.094Z,55.91
2022-09-03T03:21:20.077Z,54.95
2022-09-03T03:22:20.078Z,56.24
2022-09-03T03:23:20.080Z,53.17
2022-09-03T03:24:20.083Z,53.17
2022-09-03T03:25:20.091Z,52.37
2022-09-03T03:26:20.051Z,53.33
2022-09-03T03:27:20.046Z,53.66
2022-09-03T03:28:20.082Z,54.14
2022-09-03T03:29:20.061Z,54.30
2022-09-03T03:30:20.035Z,57.20
2022-09-03T03:31:20.090Z,55.59
2022-09-03T03:32:20.017Z,55.43
2022-09-03T03:33:20.002Z,57.36
2022-09-03T03:34:20.006Z,55.59
2022-09-03T03:35:20.011Z,54.79
2022-09-03T03:36:19.985Z,54.62
2022-09-03T03:37:20.978Z,57.04
2022-09-03T03:38:20.030Z,55.91
2022-09-03T03:39:20.012Z,55.91
2022-09-03T03:40:19.967Z,56.40
2022-09-03T03:41:19.997Z,55.91
2022-09-03T03:42:19.941Z,56.72
2022-09-03T03:43:19.974Z,55.11
2022-09-03T03:44:19.930Z,53.98
2022-09-03T03:45:19.926Z,53.66
2022-09-03T03:46:19.960Z,54.79
2022-09-03T03:47:19.909Z,54.30
2022-09-03T03:48:19.961Z,56.24
2022-09-03T03:49:19.911Z,54.79
2022-09-03T03:50:19.903Z,55.91
2022-09-03T03:51:19.901Z,56.40
2022-09-03T03:52:19.878Z,54.46
2022-09-03T03:53:19.890Z,55.27
2022-09-03T03:54:19.866Z,56.24
2022-09-03T03:55:19.874Z,53.66
2022-09-03T03:56:19.863Z,53.66
2022-09-03T03:57:19.853Z,54.14
2022-09-03T03:58:19.927Z,53.66
2022-09-03T03:59:19.845Z,55.11
2022-09-03T04:00:19.858Z,54.95
2022-09-03T04:01:19.904Z,55.43
2022-09-03T04:02:19.873Z,55.43
2022-09-03T04:03:19.818Z,55.27
2022-09-03T04:04:19.820Z,54.79
2022-09-03T04:05:23.075Z,53.66
2022-09-03T04:06:19.798Z,54.62
2022-09-03T04:07:19.793Z,54.62
2022-09-03T04:08:19.811Z,56.88
2022-09-03T04:09:19.797Z,55.75
2022-09-03T04:10:19.770Z,54.62
2022-09-03T04:11:19.753Z,53.98
2022-09-03T04:12:19.769Z,54.30
2022-09-03T04:13:19.766Z,54.46
2022-09-03T04:14:19.781Z,55.75
2022-09-03T04:15:19.749Z,54.79
2022-09-03T04:16:19.799Z,55.91
2022-09-03T04:17:24.554Z,54.14
2022-09-03T04:18:21.755Z,58.17
2022-09-03T04:19:19.749Z,55.27
2022-09-03T04:20:19.712Z,57.04
2022-09-03T04:21:19.692Z,57.04
2022-09-03T04:22:19.697Z,57.20
2022-09-03T04:23:19.705Z,55.91
2022-09-03T04:24:19.682Z,55.27
2022-09-03T04:25:19.694Z,56.40
2022-09-03T04:26:19.701Z,56.07
2022-09-03T04:27:19.666Z,56.07
2022-09-03T04:28:19.724Z,55.43
2022-09-03T04:29:19.653Z,55.27
2022-09-03T04:30:19.653Z,54.46
2022-09-03T04:31:19.721Z,55.27
2022-09-03T04:32:19.645Z,55.91
2022-09-03T04:33:19.620Z,57.04
2022-09-03T04:34:19.626Z,58.17
2022-09-03T04:35:19.608Z,56.72
2022-09-03T04:36:19.616Z,58.17
2022-09-03T04:37:19.630Z,58.65
2022-09-03T04:38:19.645Z,55.91
2022-09-03T04:39:19.646Z,55.59
2022-09-03T04:40:19.596Z,54.62
2022-09-03T04:41:19.600Z,57.36
2022-09-03T04:42:19.576Z,57.04
2022-09-03T04:43:19.571Z,54.62
2022-09-03T04:44:19.576Z,57.20
2022-09-03T04:45:19.562Z,57.36
2022-09-03T04:46:19.627Z,61.87
2022-09-03T04:47:19.570Z,57.04
2022-09-03T04:48:19.602Z,55.27
2022-09-03T04:49:19.525Z,55.91
2022-09-03T04:50:19.532Z,56.56
2022-09-03T04:51:19.521Z,54.30
2022-09-03T04:52:19.529Z,53.82
2022-09-03T04:53:19.508Z,57.04
2022-09-03T04:54:19.500Z,57.85
2022-09-03T04:55:19.500Z,58.01
2022-09-03T04:56:19.492Z,56.24
2022-09-03T04:57:19.482Z,55.27
2022-09-03T04:58:19.513Z,55.91
2022-09-03T04:59:19.480Z,55.11
2022-09-03T05:00:19.473Z,55.75
2022-09-03T05:01:19.567Z,55.11
2022-09-03T05:02:19.506Z,54.95
2022-09-03T05:03:19.488Z,54.46
2022-09-03T05:04:19.449Z,54.79
2022-09-03T05:05:19.445Z,55.43
2022-09-03T05:06:19.437Z,57.20
2022-09-03T05:07:19.424Z,55.59
2022-09-03T05:08:19.448Z,55.91
2022-09-03T05:09:19.534Z,56.56
2022-09-03T05:10:19.453Z,55.11
2022-09-03T05:11:19.408Z,55.11
2022-09-03T05:12:19.412Z,55.43
2022-09-03T05:13:19.403Z,57.69
2022-09-03T05:14:19.381Z,56.40
2022-09-03T05:15:19.468Z,56.40
2022-09-03T05:16:19.432Z,56.56
2022-09-03T05:17:19.389Z,55.91
2022-09-03T05:18:19.394Z,56.40
2022-09-03T05:19:19.364Z,60.42
2022-09-03T05:20:19.344Z,55.91
2022-09-03T05:21:19.350Z,56.07
2022-09-03T05:22:19.358Z,58.65
2022-09-03T05:23:19.338Z,55.59
2022-09-03T05:24:19.337Z,57.36
2022-09-03T05:25:19.321Z,55.11
2022-09-03T05:26:19.312Z,55.91
2022-09-03T05:27:19.300Z,54.62
2022-09-03T05:28:19.394Z,54.79
2022-09-03T05:29:19.308Z,55.27
2022-09-03T05:30:19.292Z,57.69
2022-09-03T05:31:19.351Z,56.72
2022-09-03T05:32:19.332Z,57.69
2022-09-03T05:33:19.289Z,59.78
2022-09-03T05:34:19.281Z,56.88
2022-09-03T05:35:21.937Z,59.94
2022-09-03T05:36:20.280Z,58.33
2022-09-03T05:37:19.261Z,56.56
2022-09-03T05:38:19.257Z,56.24
2022-09-03T05:39:19.285Z,58.65
2022-09-03T05:40:19.232Z,60.10
2022-09-03T05:41:19.307Z,55.91
2022-09-03T05:42:19.216Z,56.72
2022-09-03T05:43:19.237Z,58.01
2022-09-03T05:44:19.248Z,58.01
2022-09-03T05:45:19.299Z,57.85
2022-09-03T05:46:19.205Z,65.90
2022-09-03T05:47:19.192Z,60.91
2022-09-03T05:48:19.342Z,55.91
2022-09-03T05:49:19.184Z,57.52
2022-09-03T05:50:19.181Z,57.36
2022-09-03T05:51:19.215Z,63.33
2022-09-03T05:52:19.193Z,57.04
2022-09-03T05:53:19.153Z,55.91
2022-09-03T05:54:19.150Z,62.84
2022-09-03T05:55:19.653Z,59.14
2022-09-03T05:56:19.152Z,56.24
2022-09-03T05:57:19.149Z,56.56
2022-09-03T05:58:19.177Z,56.24
2022-09-03T05:59:19.117Z,60.42
2022-09-03T06:00:19.105Z,54.95
2022-09-03T06:01:19.178Z,54.95
2022-09-03T06:02:19.163Z,54.95
2022-09-03T06:03:19.284Z,56.40
2022-09-03T06:04:19.088Z,60.42
2022-09-03T06:05:19.073Z,55.91
2022-09-03T06:06:19.092Z,57.69
2022-09-03T06:07:19.080Z,54.79
2022-09-03T06:08:19.052Z,55.75
2022-09-03T06:09:19.049Z,63.65
2022-09-03T06:10:23.597Z,55.11
2022-09-03T06:11:21.281Z,59.14
2022-09-03T06:12:19.033Z,58.81
2022-09-03T06:13:19.028Z,54.79
2022-09-03T06:14:19.021Z,53.82
2022-09-03T06:15:19.002Z,62.52
2022-09-03T06:16:19.033Z,56.40
2022-09-03T06:17:20.002Z,61.55
2022-09-03T06:18:19.017Z,57.52
2022-09-03T06:19:18.971Z,61.23
2022-09-03T06:20:18.972Z,59.62
2022-09-03T06:21:18.977Z,59.62
2022-09-03T06:22:18.969Z,61.07
2022-09-03T06:23:18.955Z,64.78
2022-09-03T06:24:18.932Z,56.07
2022-09-03T06:25:18.927Z,58.97
2022-09-03T06:26:18.943Z,60.91
2022-09-03T06:27:18.939Z,61.23
2022-09-03T06:28:18.937Z,60.42
2022-09-03T06:29:18.916Z,63.97
2022-09-03T06:30:18.902Z,64.61
2022-09-03T06:31:18.935Z,64.61
2022-09-03T06:32:18.908Z,56.72
2022-09-03T06:33:18.881Z,55.91
2022-09-03T06:34:18.902Z,58.81
2022-09-03T06:35:18.875Z,59.30
2022-09-03T06:36:18.867Z,61.07
2022-09-03T06:37:18.895Z,59.14
2022-09-03T06:38:18.876Z,60.10
2022-09-03T06:39:18.902Z,63.00
2022-09-03T06:40:18.837Z,57.69
2022-09-03T06:41:18.827Z,55.75
2022-09-03T06:42:18.831Z,61.55
2022-09-03T06:43:18.844Z,56.88
2022-09-03T06:44:18.804Z,56.72
2022-09-03T06:45:18.812Z,55.11
2022-09-03T06:46:18.820Z,65.58
2022-09-03T06:47:18.799Z,67.35
2022-09-03T06:48:18.811Z,57.85
2022-09-03T06:49:18.791Z,66.71
2022-09-03T06:50:18.784Z,61.87
2022-09-03T06:51:18.751Z,56.24
2022-09-03T06:52:18.759Z,59.14
2022-09-03T06:53:18.779Z,56.56
2022-09-03T06:54:18.757Z,55.27
2022-09-03T06:55:18.747Z,58.33
2022-09-03T06:56:18.731Z,63.16
2022-09-03T06:57:18.724Z,56.88
2022-09-03T06:58:18.743Z,60.10
2022-09-03T06:59:18.716Z,55.11
2022-09-03T07:00:18.696Z,55.27
2022-09-03T07:01:18.808Z,61.39
2022-09-03T07:02:18.807Z,52.85
2022-09-03T07:03:18.695Z,64.94
2022-09-03T07:04:19.244Z,63.33
2022-09-03T07:05:18.683Z,63.33
2022-09-03T07:06:18.669Z,66.71
2022-09-03T07:07:18.660Z,58.17
2022-09-03T07:08:18.699Z,51.72
2022-09-03T07:09:18.675Z,54.46
2022-09-03T07:10:18.644Z,59.78
2022-09-03T07:11:18.649Z,63.00
2022-09-03T07:12:18.639Z,55.11
2022-09-03T07:13:18.664Z,59.94
2022-09-03T07:14:18.621Z,54.46
2022-09-03T07:15:19.627Z,57.36
2022-09-03T07:16:18.741Z,63.49
2022-09-03T07:17:18.629Z,58.49
2022-09-03T07:18:18.610Z,66.71
2022-09-03T07:19:18.688Z,58.49
2022-09-03T07:20:18.577Z,58.01
2022-09-03T07:21:18.582Z,64.78
2022-09-03T07:22:18.583Z,66.55
2022-09-03T07:23:18.577Z,62.04
2022-09-03T07:24:18.565Z,58.49
2022-09-03T07:25:18.565Z,65.74
2022-09-03T07:26:18.562Z,67.19
2022-09-03T07:27:18.546Z,57.36
2022-09-03T07:28:18.594Z,62.84
2022-09-03T07:29:18.553Z,66.39
2022-09-03T07:30:18.517Z,51.08
2022-09-03T07:31:18.553Z,57.20
2022-09-03T07:32:18.506Z,62.68
2022-09-03T07:33:20.115Z,58.33
2022-09-03T07:34:18.521Z,63.65
2022-09-03T07:35:19.513Z,56.56
2022-09-03T07:36:18.488Z,55.59
2022-09-03T07:37:18.503Z,62.52
2022-09-03T07:38:18.478Z,64.45
2022-09-03T07:39:18.524Z,63.49
2022-09-03T07:40:18.472Z,65.58
2022-09-03T07:41:27.088Z,62.36
2022-09-03T07:42:19.492Z,61.55
2022-09-03T07:43:18.449Z,63.65
2022-09-03T07:44:18.440Z,60.10
2022-09-03T07:45:18.443Z,63.65
2022-09-03T07:46:18.449Z,59.46
2022-09-03T07:47:19.910Z,64.94
2022-09-03T07:48:19.449Z,63.00
2022-09-03T07:49:18.404Z,61.55
2022-09-03T07:50:19.406Z,55.75
2022-09-03T07:51:18.398Z,60.26
2022-09-03T07:52:18.391Z,56.56
2022-09-03T07:53:18.387Z,58.49
2022-09-03T07:54:18.405Z,62.68
2022-09-03T07:55:18.374Z,66.39
2022-09-03T07:56:18.382Z,64.94
2022-09-03T07:57:18.358Z,55.91
2022-09-03T07:58:18.364Z,60.10
2022-09-03T07:59:18.370Z,62.20
2022-09-03T08:00:18.357Z,64.45
2022-09-03T08:01:18.471Z,62.84
2022-09-03T08:02:18.329Z,61.71
2022-09-03T08:03:18.997Z,58.97
2022-09-03T08:04:18.311Z,57.69
2022-09-03T08:05:18.317Z,58.97
2022-09-03T08:06:18.282Z,56.07
2022-09-03T08:07:18.283Z,63.16
2022-09-03T08:08:18.285Z,59.94
2022-09-03T08:09:18.287Z,52.37
2022-09-03T08:10:18.271Z,59.30
2022-09-03T08:11:18.300Z,64.13
2022-09-03T08:12:18.264Z,64.13
2022-09-03T08:13:18.292Z,56.72
2022-09-03T08:14:18.237Z,57.85
2022-09-03T08:15:18.265Z,58.01
2022-09-03T08:16:18.260Z,55.75
2022-09-03T08:17:18.241Z,57.20
2022-09-03T08:18:18.212Z,62.52
2022-09-03T08:19:18.258Z,61.07
2022-09-03T08:20:18.215Z,60.10
2022-09-03T08:21:18.229Z,64.13
2022-09-03T08:22:19.006Z,62.84
2022-09-03T08:23:18.226Z,50.43
2022-09-03T08:24:18.189Z,58.01
2022-09-03T08:25:18.173Z,55.59
2022-09-03T08:26:18.173Z,60.26
2022-09-03T08:27:18.182Z,61.07
2022-09-03T08:28:18.307Z,59.78
2022-09-03T08:29:18.156Z,53.82
2022-09-03T08:30:19.063Z,65.26
2022-09-03T08:31:18.242Z,60.59
2022-09-03T08:32:18.277Z,56.72
2022-09-03T08:33:18.146Z,59.94
2022-09-03T08:34:19.021Z,67.19
2022-09-03T08:35:18.117Z,66.06
2022-09-03T08:36:18.216Z,61.55
2022-09-03T08:37:18.114Z,61.39
2022-09-03T08:38:18.182Z,65.58
2022-09-03T08:39:18.151Z,61.71
2022-09-03T08:40:19.134Z,64.45
2022-09-03T08:41:18.082Z,63.16
2022-09-03T08:42:18.085Z,58.49
2022-09-03T08:43:18.064Z,63.97
2022-09-03T08:44:18.083Z,57.69
2022-09-03T08:45:18.059Z,56.40
2022-09-03T08:46:18.215Z,61.23
2022-09-03T08:47:18.063Z,51.88
2022-09-03T08:48:19.268Z,57.69
2022-09-03T08:49:18.052Z,60.10
2022-09-03T08:50:18.028Z,65.10
2022-09-03T08:51:18.112Z,55.59
2022-09-03T08:52:18.043Z,53.66
2022-09-03T08:53:18.007Z,67.68
2022-09-03T08:54:18.017Z,54.14
2022-09-03T08:55:18.030Z,64.29
2022-09-03T08:56:17.986Z,59.30
2022-09-03T08:57:17.995Z,57.69
2022-09-03T08:58:17.989Z,64.78
2022-09-03T08:59:17.967Z,55.75
2022-09-03T09:00:17.990Z,58.49
2022-09-03T09:01:18.041Z,65.74
2022-09-03T09:02:18.138Z,62.04
2022-09-03T09:03:17.938Z,62.04
2022-09-03T09:04:17.942Z,63.97
2022-09-03T09:05:18.010Z,64.61
2022-09-03T09:06:17.954Z,66.39
2022-09-03T09:07:17.914Z,64.45
2022-09-03T09:08:17.918Z,58.17
2022-09-03T09:09:17.907Z,60.91
2022-09-03T09:10:17.955Z,66.71
2022-09-03T09:11:17.992Z,63.00
2022-09-03T09:12:17.882Z,64.29
2022-09-03T09:13:17.894Z,64.45
2022-09-03T09:14:17.890Z,61.87
2022-09-03T09:15:17.874Z,67.35
2022-09-03T09:16:17.971Z,64.13
2022-09-03T09:17:17.874Z,62.36
2022-09-03T09:18:17.864Z,64.45
2022-09-03T09:19:17.880Z,59.62
2022-09-03T09:20:17.882Z,57.69
2022-09-03T09:21:21.387Z,60.59
2022-09-03T09:22:18.836Z,65.10
2022-09-03T09:23:17.819Z,59.94
2022-09-03T09:24:17.819Z,63.81
2022-09-03T09:25:17.818Z,64.45
2022-09-03T09:26:17.806Z,64.29
2022-09-03T09:27:17.810Z,55.43
2022-09-03T09:28:17.797Z,63.16
2022-09-03T09:29:17.799Z,63.16
2022-09-03T09:30:17.820Z,65.58
2022-09-03T09:31:18.549Z,58.81
2022-09-03T09:32:17.835Z,57.04
2022-09-03T09:33:17.772Z,62.52
2022-09-03T09:34:17.768Z,49.95
2022-09-03T09:35:17.760Z,59.94
2022-09-03T09:36:19.542Z,63.81
2022-09-03T09:37:17.780Z,64.13
2022-09-03T09:38:17.760Z,65.10
2022-09-03T09:39:17.817Z,62.36
2022-09-03T09:40:17.783Z,51.72
2022-09-03T09:41:17.756Z,62.84
2022-09-03T09:42:17.751Z,65.10
2022-09-03T09:43:17.724Z,64.61
2022-09-03T09:44:17.715Z,57.20
2022-09-03T09:45:17.713Z,61.71
2022-09-03T09:46:17.784Z,65.90
2022-09-03T09:47:17.708Z,58.81
2022-09-03T09:48:17.704Z,57.04
2022-09-03T09:49:17.703Z,64.78
2022-09-03T09:50:25.050Z,54.46
2022-09-03T09:51:18.659Z,63.00
2022-09-03T09:52:17.736Z,55.91
2022-09-03T09:53:17.695Z,64.13
2022-09-03T09:54:17.656Z,66.39
2022-09-03T09:55:17.676Z,58.97
2022-09-03T09:56:17.636Z,64.45
2022-09-03T09:57:17.641Z,64.13
2022-09-03T09:58:17.619Z,64.13
2022-09-03T09:59:17.647Z,64.61
2022-09-03T10:00:17.649Z,60.10
2022-09-03T10:01:17.677Z,58.17
2022-09-03T10:02:21.947Z,58.81
2022-09-03T10:03:17.668Z,67.19
2022-09-03T10:04:17.604Z,59.46
2022-09-03T10:05:17.583Z,64.94
2022-09-03T10:06:17.597Z,64.94
2022-09-03T10:07:17.564Z,65.90
2022-09-03T10:08:17.583Z,59.78
2022-09-03T10:09:17.571Z,65.58
2022-09-03T10:10:17.543Z,57.36
2022-09-03T10:11:17.591Z,61.55
2022-09-03T10:12:17.530Z,57.85
2022-09-03T10:13:17.535Z,57.85
2022-09-03T10:14:17.527Z,65.58
2022-09-03T10:15:17.519Z,66.39
2022-09-03T10:16:17.606Z,64.29
2022-09-03T10:17:19.746Z,61.39
2022-09-03T10:18:17.499Z,55.11
2022-09-03T10:19:17.499Z,63.33
2022-09-03T10:20:17.497Z,60.75
2022-09-03T10:21:17.495Z,61.71
2022-09-03T10:22:17.493Z,61.55
2022-09-03T10:23:17.463Z,64.13
2022-09-03T10:24:17.479Z,64.61
2022-09-03T10:25:17.488Z,64.94
2022-09-03T10:26:17.483Z,65.26
2022-09-03T10:27:17.451Z,58.17
2022-09-03T10:28:17.446Z,59.62
2022-09-03T10:29:17.431Z,65.42
2022-09-03T10:30:17.415Z,61.87
2022-09-03T10:31:17.501Z,59.78
2022-09-03T10:32:17.441Z,54.14
2022-09-03T10:33:17.426Z,59.14
2022-09-03T10:34:17.407Z,56.88
2022-09-03T10:35:17.390Z,52.21
2022-09-03T10:36:17.427Z,53.50
2022-09-03T10:37:17.395Z,59.46
2022-09-03T10:38:17.387Z,55.91
2022-09-03T10:39:17.415Z,60.10
2022-09-03T10:40:17.433Z,63.65
2022-09-03T10:41:17.358Z,61.55
2022-09-03T10:42:17.359Z,59.46
2022-09-03T10:43:17.358Z,62.68
2022-09-03T10:44:17.346Z,64.94
2022-09-03T10:45:17.366Z,63.00
2022-09-03T10:46:21.886Z,60.42
2022-09-03T10:47:19.339Z,63.65
2022-09-03T10:48:17.378Z,63.65
2022-09-03T10:49:17.328Z,59.46
2022-09-03T10:50:17.329Z,61.87
2022-09-03T10:51:17.313Z,60.75
2022-09-03T10:52:17.325Z,61.55
2022-09-03T10:53:17.322Z,62.68
2022-09-03T10:54:17.285Z,63.16
2022-09-03T10:55:17.281Z,55.27
2022-09-03T10:56:17.298Z,54.30
2022-09-03T10:57:17.308Z,51.40
2022-09-03T10:58:17.332Z,60.10
2022-09-03T10:59:17.302Z,66.23
2022-09-03T11:00:17.281Z,63.97
2022-09-03T11:01:17.292Z,58.49
2022-09-03T11:02:17.301Z,64.94
2022-09-03T11:03:21.073Z,62.36
2022-09-03T11:04:17.294Z,67.51
2022-09-03T11:05:17.229Z,61.55
2022-09-03T11:06:17.288Z,60.26
2022-09-03T11:07:17.221Z,57.85
2022-09-03T11:08:17.216Z,56.72
2022-09-03T11:09:17.246Z,62.04
2022-09-03T11:10:17.209Z,56.88
2022-09-03T11:11:17.188Z,55.27
2022-09-03T11:12:17.173Z,60.42
2022-09-03T11:13:17.169Z,56.88
2022-09-03T11:14:17.156Z,52.85
2022-09-03T11:15:17.148Z,52.21
2022-09-03T11:16:17.198Z,64.61
2022-09-03T11:17:17.132Z,61.87
2022-09-03T11:18:17.151Z,58.33
2022-09-03T11:19:17.149Z,62.68
2022-09-03T11:20:49.537Z,55.91
2022-09-03T11:21:17.176Z,66.39
2022-09-03T11:22:17.109Z,54.79
2022-09-03T11:23:17.109Z,56.56
2022-09-03T11:24:17.130Z,62.84
2022-09-03T11:25:17.105Z,58.97
2022-09-03T11:26:17.113Z,55.43
2022-09-03T11:27:17.106Z,63.65
2022-09-03T11:28:17.094Z,62.36
2022-09-03T11:29:17.100Z,58.01
2022-09-03T11:30:17.089Z,61.23
2022-09-03T11:31:17.151Z,64.13
2022-09-03T11:32:17.097Z,63.00
2022-09-03T11:33:17.070Z,63.00
2022-09-03T11:34:23.430Z,65.42
2022-09-03T11:35:18.049Z,66.06
2022-09-03T11:36:17.049Z,62.04
2022-09-03T11:37:17.080Z,63.81
2022-09-03T11:38:17.065Z,66.39
2022-09-03T11:39:17.064Z,61.71
2022-09-03T11:40:17.033Z,51.88
2022-09-03T11:41:17.053Z,65.26
2022-09-03T11:42:17.028Z,54.30
2022-09-03T11:43:17.005Z,58.97
2022-09-03T11:44:16.993Z,66.23
2022-09-03T11:45:16.997Z,62.52
2022-09-03T11:46:17.009Z,58.33
2022-09-03T11:47:17.001Z,57.69
2022-09-03T11:48:16.984Z,62.20
2022-09-03T11:49:16.961Z,63.00
2022-09-03T11:50:17.995Z,62.36
2022-09-03T11:51:16.974Z,59.94
2022-09-03T11:52:16.945Z,57.69
2022-09-03T11:53:16.949Z,58.01
2022-09-03T11:54:16.932Z,52.85
2022-09-03T11:55:16.924Z,60.75
2022-09-03T11:56:16.962Z,58.97
2022-09-03T11:57:16.916Z,61.55
2022-09-03T11:58:16.916Z,60.10
2022-09-03T11:59:16.934Z,57.36
2022-09-03T12:00:16.928Z,60.59
2022-09-03T12:01:16.901Z,58.17
2022-09-03T12:02:16.934Z,59.62
2022-09-03T12:03:16.912Z,61.55
2022-09-03T12:04:16.931Z,61.55
2022-09-03T12:05:16.858Z,57.04
2022-09-03T12:06:16.870Z,59.14
2022-09-03T12:07:17.589Z,59.14
2022-09-03T12:08:16.845Z,57.52
2022-09-03T12:09:16.852Z,58.65
2022-09-03T12:10:16.893Z,52.53
2022-09-03T12:11:16.869Z,59.30
2022-09-03T12:12:16.853Z,55.91
2022-09-03T12:13:16.916Z,57.04
2022-09-03T12:14:16.806Z,58.17
2022-09-03T12:15:16.838Z,64.29
2022-09-03T12:16:16.886Z,61.07
2022-09-03T12:17:16.849Z,51.24
2022-09-03T12:18:16.797Z,52.21
2022-09-03T12:19:16.770Z,58.17
2022-09-03T12:20:16.850Z,55.11
2022-09-03T12:21:16.756Z,56.88
2022-09-03T12:22:16.764Z,54.62
2022-09-03T12:23:16.853Z,59.62
2022-09-03T12:24:16.741Z,49.63
2022-09-03T12:25:16.729Z,62.04
2022-09-03T12:26:16.769Z,58.97
2022-09-03T12:27:16.782Z,49.95
2022-09-03T12:28:16.717Z,56.88
2022-09-03T12:29:16.694Z,53.01
2022-09-03T12:30:16.733Z,61.23
2022-09-03T12:31:16.824Z,55.11
2022-09-03T12:32:16.718Z,62.84
2022-09-03T12:33:16.740Z,52.05
2022-09-03T12:34:16.671Z,51.40
2022-09-03T12:35:58.101Z,55.75
2022-09-03T12:36:18.722Z,61.55
2022-09-03T12:37:16.953Z,55.59
2022-09-03T12:38:18.794Z,59.78
2022-09-03T12:39:18.065Z,60.91
2022-09-03T12:40:16.733Z,63.81
2022-09-03T12:41:22.998Z,54.46
2022-09-03T12:42:18.658Z,65.26
2022-09-03T12:44:18.622Z,54.46
2022-09-03T12:45:16.625Z,64.13
2022-09-03T12:46:17.781Z,65.74
2022-09-03T12:48:18.623Z,65.90
2022-09-03T12:49:31.892Z,58.49
2022-09-03T12:50:20.044Z,55.43
2022-09-03T12:52:18.602Z,51.72
2022-09-03T12:53:16.634Z,53.17
2022-09-03T12:54:16.587Z,54.95
2022-09-03T12:55:16.573Z,57.04